Time;durP1;ratioP1;P1;durP2;ratioP2;P2;SDS_P1;SDS_P2;PMS_P1;PMS_P2;Temp;Humidity;BMP_temperature;BMP_pressure;BME280_temperature;BME280_humidity;BME280_pressure;Samples;Min_cycle;Max_cycle;Signal;HPM_P1;HPM_P2
2021/08/06 00:02:11;;;;;;;2.58;0.90;;;;;;;;;;10414418;28;20040;-82
2021/08/06 00:07:12;;;;;;;7.17;1.20;;;;;;;;;;10413790;28;20043;-82
2021/08/06 00:12:12;;;;;;;1.00;0.90;;;;;;;;;;10414805;28;20960;-82
2021/08/06 00:17:13;;;;;;;0.87;0.80;;;;;;;;;;10413872;28;20120;-82
2021/08/06 00:22:13;;;;;;;1.00;0.88;;;;;;;;;;10415143;28;20018;-81
2021/08/06 00:27:14;;;;;;;0.83;0.60;;;;;;;;;;10413777;28;20025;-81
2021/08/06 00:32:14;;;;;;;1.30;0.90;;;;;;;;;;10414366;28;20769;-82
2021/08/06 00:37:14;;;;;;;0.80;0.63;;;;;;;;;;10413123;28;20026;-82
2021/08/06 00:42:15;;;;;;;2.88;0.88;;;;;;;;;;10415249;28;20037;-82
2021/08/06 00:47:16;;;;;;;1.63;1.00;;;;;;;;;;10420518;28;20033;-82
2021/08/06 00:52:16;;;;;;;1.00;0.70;;;;;;;;;;10421437;28;20097;-81
2021/08/06 00:57:17;;;;;;;1.38;0.75;;;;;;;;;;10419360;28;20034;-82
2021/08/06 01:02:20;;;;;;;2.92;0.80;;;;;;;;;;10418857;28;20091;-82
2021/08/06 01:07:31;;;;;;;1.50;1.02;;;;;;;;;;10420264;28;20049;-82
2021/08/06 01:12:51;;;;;;;0.90;0.80;;;;;;;;;;10418865;28;20030;-82
2021/08/06 01:17:52;;;;;;;1.30;0.60;;;;;;;;;;10418962;28;20120;-82
2021/08/06 01:23:31;;;;;;;0.80;0.80;;;;;;;;;;10418611;28;20037;-82
2021/08/06 01:28:36;;;;;;;0.75;0.73;;;;;;;;;;10417740;28;20034;-81
2021/08/06 01:33:38;;;;;;;0.90;0.90;;;;;;;;;;10419356;28;20120;-82
2021/08/06 01:38:38;;;;;;;1.85;1.15;;;;;;;;;;10419016;28;20061;-82
2021/08/06 01:44:02;;;;;;;0.70;0.65;;;;;;;;;;10418148;28;20061;-82
2021/08/06 01:49:09;;;;;;;1.00;0.80;;;;;;;;;;10417891;28;20037;-82
2021/08/06 01:54:11;;;;;;;1.08;0.63;;;;;;;;;;10417946;28;20581;-82
2021/08/06 01:59:12;;;;;;;1.70;0.95;;;;;;;;;;10417328;28;20034;-82
2021/08/06 02:04:12;;;;;;;0.60;0.60;;;;;;;;;;10417347;28;20029;-82
2021/08/06 02:09:17;;;;;;;2.00;0.90;;;;;;;;;;10417418;28;20053;-82
2021/08/06 02:14:18;;;;;;;0.90;0.70;;;;;;;;;;10417833;28;20402;-82
2021/08/06 02:19:22;;;;;;;1.30;0.70;;;;;;;;;;10416725;28;20414;-81
2021/08/06 02:24:25;;;;;;;0.98;0.88;;;;;;;;;;10430292;28;20391;-81
2021/08/06 02:29:27;;;;;;;1.55;0.68;;;;;;;;;;10417511;28;20062;-82
2021/08/06 02:34:28;;;;;;;1.83;0.63;;;;;;;;;;10417360;28;20479;-82
2021/08/06 02:39:29;;;;;;;0.80;0.60;;;;;;;;;;10415588;28;20032;-81
2021/08/06 02:44:29;;;;;;;1.90;0.60;;;;;;;;;;10417136;28;20404;-82
2021/08/06 02:49:33;;;;;;;3.07;0.73;;;;;;;;;;10415844;28;20029;-81
2021/08/06 02:54:34;;;;;;;1.25;0.90;;;;;;;;;;10416281;28;20550;-82
2021/08/06 02:59:34;;;;;;;1.58;0.77;;;;;;;;;;10416368;28;20057;-81
2021/08/06 03:04:35;;;;;;;3.40;0.83;;;;;;;;;;10416085;28;20440;-81
2021/08/06 03:09:35;;;;;;;3.17;0.57;;;;;;;;;;10415013;28;20037;-81
2021/08/06 03:14:36;;;;;;;0.88;0.82;;;;;;;;;;10407913;28;20460;-82
2021/08/06 03:19:36;;;;;;;1.10;0.85;;;;;;;;;;10411916;28;20037;-81
2021/08/06 03:24:37;;;;;;;1.13;0.83;;;;;;;;;;10414963;28;20025;-82
2021/08/06 03:29:37;;;;;;;0.80;0.70;;;;;;;;;;10414661;28;20454;-81
2021/08/06 03:34:38;;;;;;;3.60;0.73;;;;;;;;;;10415287;28;20546;-82
2021/08/06 03:39:39;;;;;;;2.05;0.82;;;;;;;;;;10414507;28;20367;-82
2021/08/06 03:44:39;;;;;;;1.10;0.80;;;;;;;;;;10414796;28;20038;-82
2021/08/06 03:49:39;;;;;;;1.57;1.00;;;;;;;;;;10414807;28;20064;-81
2021/08/06 03:54:40;;;;;;;0.50;0.50;;;;;;;;;;10415044;28;20447;-82
2021/08/06 03:59:40;;;;;;;0.82;0.68;;;;;;;;;;10414370;28;20042;-82
2021/08/06 04:04:41;;;;;;;1.97;0.90;;;;;;;;;;10414263;28;20076;-81
2021/08/06 04:09:41;;;;;;;1.17;0.73;;;;;;;;;;10424706;23;20061;-81
2021/08/06 04:14:41;;;;;;;0.80;0.80;;;;;;;;;;10332703;28;20077;-81
2021/08/06 04:19:42;;;;;;;0.60;0.60;;;;;;;;;;10337652;28;20054;-81
2021/08/06 04:24:42;;;;;;;1.73;0.80;;;;;;;;;;10340100;28;20034;-82
2021/08/06 04:29:43;;;;;;;0.60;0.60;;;;;;;;;;10340883;28;20042;-82
2021/08/06 04:34:43;;;;;;;1.60;0.80;;;;;;;;;;10333661;28;20369;-86
2021/08/06 04:39:44;;;;;;;0.57;0.57;;;;;;;;;;10339122;28;20432;-85
2021/08/06 04:44:44;;;;;;;0.67;0.67;;;;;;;;;;10338313;28;20090;-85
2021/08/06 04:49:44;;;;;;;1.35;0.63;;;;;;;;;;10339332;28;20492;-85
2021/08/06 04:54:45;;;;;;;1.43;0.80;;;;;;;;;;10337627;28;20030;-85
2021/08/06 04:59:45;;;;;;;1.00;0.70;;;;;;;;;;10337998;28;20034;-85
2021/08/06 05:04:45;;;;;;;1.63;0.80;;;;;;;;;;10336641;28;20472;-86
2021/08/06 05:09:46;;;;;;;2.23;0.83;;;;;;;;;;10338213;28;20060;-86
2021/08/06 05:14:47;;;;;;;1.33;0.90;;;;;;;;;;10336996;28;20029;-86
2021/08/06 05:19:47;;;;;;;1.95;0.90;;;;;;;;;;10350521;28;20461;-86
2021/08/06 05:24:47;;;;;;;4.03;1.17;;;;;;;;;;10338399;28;20035;-85
2021/08/06 05:29:48;;;;;;;2.50;1.20;;;;;;;;;;10339055;28;20058;-86
2021/08/06 05:34:48;;;;;;;6.80;1.47;;;;;;;;;;10338039;28;20435;-84
2021/08/06 05:39:49;;;;;;;1.73;1.27;;;;;;;;;;10338379;28;20041;-85
2021/08/06 05:44:49;;;;;;;3.07;1.30;;;;;;;;;;10337258;28;20066;-85
2021/08/06 05:49:49;;;;;;;2.17;1.10;;;;;;;;;;10339916;28;20109;-83
2021/08/06 05:54:50;;;;;;;1.93;1.20;;;;;;;;;;10336381;28;20038;-84
2021/08/06 05:59:50;;;;;;;1.47;1.00;;;;;;;;;;10347545;28;20467;-86
2021/08/06 06:04:51;;;;;;;2.07;1.10;;;;;;;;;;10336034;28;20038;-86
2021/08/06 06:09:51;;;;;;;5.20;1.30;;;;;;;;;;10336970;28;20078;-86
2021/08/06 06:14:51;;;;;;;4.50;1.38;;;;;;;;;;10340000;28;20414;-86
2021/08/06 06:19:52;;;;;;;6.25;1.73;;;;;;;;;;10350415;28;20369;-86
2021/08/06 06:24:53;;;;;;;2.60;1.45;;;;;;;;;;10334590;28;20491;-85
2021/08/06 06:29:53;;;;;;;2.87;1.40;;;;;;;;;;10334951;28;20030;-86
2021/08/06 06:34:53;;;;;;;2.08;1.25;;;;;;;;;;10334968;28;20464;-86
2021/08/06 06:39:54;;;;;;;5.20;1.20;;;;;;;;;;10334229;28;20026;-86
2021/08/06 06:44:54;;;;;;;3.57;1.20;;;;;;;;;;10335401;28;20393;-86
2021/08/06 06:49:54;;;;;;;1.60;1.07;;;;;;;;;;10334581;28;20022;-87
2021/08/06 06:54:55;;;;;;;6.30;1.30;;;;;;;;;;10335032;28;20152;-86
2021/08/06 06:59:55;;;;;;;1.70;1.02;;;;;;;;;;10332957;28;20035;-86
2021/08/06 07:04:56;;;;;;;1.48;1.10;;;;;;;;;;10332895;28;20038;-87
2021/08/06 07:09:56;;;;;;;3.67;1.43;;;;;;;;;;10316888;28;20077;-86
2021/08/06 07:14:59;;;;;;;1.97;1.13;;;;;;;;;;10334523;28;20484;-85
2021/08/06 07:20:00;;;;;;;4.38;1.25;;;;;;;;;;10321285;28;20369;-86
2021/08/06 07:25:01;;;;;;;3.85;1.40;;;;;;;;;;10316993;28;20026;-86
2021/08/06 07:30:03;;;;;;;5.28;1.20;;;;;;;;;;10331870;28;20038;-86
2021/08/06 07:35:05;;;;;;;1.55;1.10;;;;;;;;;;10332076;28;20129;-87
2021/08/06 07:40:06;;;;;;;3.22;1.33;;;;;;;;;;10331697;28;20034;-87
2021/08/06 07:45:10;;;;;;;3.42;1.30;;;;;;;;;;10332510;28;20528;-87
2021/08/06 07:50:10;;;;;;;1.88;0.90;;;;;;;;;;10332302;28;20065;-86
2021/08/06 07:55:13;;;;;;;1.45;0.95;;;;;;;;;;10339002;28;20022;-87
2021/08/06 08:00:14;;;;;;;1.33;1.00;;;;;;;;;;10340493;28;20030;-88
2021/08/06 08:05:15;;;;;;;1.20;1.08;;;;;;;;;;10340324;28;20412;-87
2021/08/06 08:10:15;;;;;;;3.53;1.40;;;;;;;;;;10341405;28;20042;-87
2021/08/06 08:15:15;;;;;;;2.60;1.00;;;;;;;;;;10339919;28;20117;-86
2021/08/06 08:20:16;;;;;;;1.50;1.20;;;;;;;;;;10340263;28;20448;-87
2021/08/06 08:25:16;;;;;;;3.58;1.10;;;;;;;;;;10339654;28;21000;-87
2021/08/06 08:30:17;;;;;;;3.73;1.30;;;;;;;;;;10339304;28;20038;-87
2021/08/06 08:35:18;;;;;;;2.88;1.02;;;;;;;;;;10340393;28;20514;-87
2021/08/06 08:40:18;;;;;;;1.43;1.10;;;;;;;;;;10338439;28;20400;-87
2021/08/06 08:45:18;;;;;;;1.73;0.90;;;;;;;;;;10339337;28;20108;-87
2021/08/06 08:50:19;;;;;;;1.47;1.00;;;;;;;;;;10337834;28;20042;-88
2021/08/06 08:55:20;;;;;;;2.13;1.10;;;;;;;;;;10338676;28;20397;-88
2021/08/06 09:00:20;;;;;;;1.40;1.00;;;;;;;;;;10339843;28;20026;-88
2021/08/06 09:05:26;;;;;;;1.60;0.83;;;;;;;;;;10337588;28;20479;-87
2021/08/06 09:10:29;;;;;;;2.83;1.20;;;;;;;;;;10337548;28;20050;-87
2021/08/06 09:15:53;;;;;;;1.58;1.00;;;;;;;;;;10338859;28;20118;-87
2021/08/06 09:21:01;;;;;;;0.93;0.82;;;;;;;;;;10323543;28;20436;-87
2021/08/06 09:26:02;;;;;;;3.33;1.08;;;;;;;;;;10321216;28;20034;-87
2021/08/06 09:31:15;;;;;;;1.67;0.90;;;;;;;;;;10337187;28;20044;-87
2021/08/06 09:36:16;;;;;;;7.28;1.00;;;;;;;;;;10336946;28;20077;-87
2021/08/06 09:41:46;;;;;;;1.77;0.80;;;;;;;;;;10337024;28;20030;-87
2021/08/06 09:46:47;;;;;;;0.85;0.80;;;;;;;;;;10337426;28;20117;-86
2021/08/06 09:51:49;;;;;;;0.95;0.90;;;;;;;;;;10335784;28;20081;-87
2021/08/06 09:57:10;;;;;;;2.13;1.00;;;;;;;;;;10337199;28;20077;-87
2021/08/06 10:02:21;;;;;;;2.20;0.85;;;;;;;;;;10335792;28;20038;-87
2021/08/06 10:07:22;;;;;;;0.80;0.80;;;;;;;;;;10335655;28;20047;-87
2021/08/06 10:12:23;;;;;;;7.32;1.13;;;;;;;;;;10336165;28;20026;-87
2021/08/06 10:17:24;;;;;;;2.15;0.90;;;;;;;;;;10334104;28;20038;-87
2021/08/06 10:22:25;;;;;;;1.55;0.90;;;;;;;;;;10336377;28;20034;-87
2021/08/06 10:27:27;;;;;;;2.10;0.90;;;;;;;;;;10335027;28;20456;-87
2021/08/06 10:32:28;;;;;;;3.80;1.10;;;;;;;;;;10335225;28;20048;-85
2021/08/06 10:37:47;;;;;;;1.35;0.80;;;;;;;;;;10333898;28;20042;-87
2021/08/06 10:42:47;;;;;;;1.38;1.10;;;;;;;;;;10334792;28;20088;-86
2021/08/06 10:47:50;;;;;;;2.75;0.90;;;;;;;;;;10334878;28;20026;-92
2021/08/06 10:53:16;;;;;;;1.45;0.90;;;;;;;;;;10334664;28;20061;-90
2021/08/06 10:58:54;;;;;;;1.20;0.93;;;;;;;;;;10338794;28;20062;-90
2021/08/06 11:04:16;;;;;;;3.70;0.73;;;;;;;;;;10335080;28;20033;-90
2021/08/06 11:09:23;;;;;;;2.28;1.20;;;;;;;;;;10334075;28;20530;-90
2021/08/06 11:14:29;;;;;;;3.40;1.00;;;;;;;;;;10334809;28;20080;-90
2021/08/06 11:19:58;;;;;;;1.02;0.90;;;;;;;;;;10334431;28;20034;-90
2021/08/06 11:25:21;;;;;;;2.35;0.80;;;;;;;;;;10329149;28;20042;-90
2021/08/06 11:30:25;;;;;;;1.65;0.90;;;;;;;;;;10312020;28;20040;-90
2021/08/06 11:35:33;;;;;;;0.82;0.80;;;;;;;;;;10333144;28;20039;-90
2021/08/06 11:40:35;;;;;;;1.00;0.80;;;;;;;;;;10328868;28;20026;-90
2021/08/06 11:45:36;;;;;;;1.05;1.00;;;;;;;;;;10316768;28;20468;-90
2021/08/06 11:50:40;;;;;;;1.77;1.10;;;;;;;;;;10316396;28;20097;-90
2021/08/06 11:55:41;;;;;;;0.98;0.95;;;;;;;;;;10316453;28;20503;-90
2021/08/06 12:00:45;;;;;;;1.33;1.23;;;;;;;;;;10340620;28;20069;-90
2021/08/06 12:05:47;;;;;;;2.97;1.20;;;;;;;;;;10341829;28;20026;-91
2021/08/06 12:11:07;;;;;;;4.30;1.45;;;;;;;;;;10332233;28;20043;-90
2021/08/06 12:16:16;;;;;;;2.28;1.00;;;;;;;;;;10330959;28;20180;-91
2021/08/06 12:21:21;;;;;;;2.65;1.17;;;;;;;;;;10331002;28;20026;-90
2021/08/06 12:26:39;;;;;;;3.65;1.50;;;;;;;;;;10332454;28;20065;-90
2021/08/06 12:32:10;;;;;;;3.08;1.40;;;;;;;;;;10330918;28;20065;-90
2021/08/06 12:37:12;;;;;;;3.20;2.00;;;;;;;;;;10313531;28;20039;-90
2021/08/06 12:42:15;;;;;;;2.15;1.38;;;;;;;;;;10322358;28;20375;-84
2021/08/06 12:47:17;;;;;;;2.78;1.33;;;;;;;;;;10340195;28;20038;-84
2021/08/06 12:52:23;;;;;;;1.65;1.20;;;;;;;;;;10338969;28;20042;-85
2021/08/06 12:57:40;;;;;;;4.55;1.30;;;;;;;;;;10338901;28;20026;-84
2021/08/06 13:02:41;;;;;;;2.58;1.23;;;;;;;;;;10338230;28;20109;-80
2021/08/06 13:07:41;;;;;;;2.08;1.40;;;;;;;;;;10339325;28;20054;-80
2021/08/06 13:12:46;;;;;;;5.17;1.93;;;;;;;;;;10337875;28;20110;-80
2021/08/06 13:17:47;;;;;;;3.80;1.85;;;;;;;;;;10337572;28;20057;-81
2021/08/06 13:22:47;;;;;;;3.15;1.58;;;;;;;;;;10338472;28;20065;-80
2021/08/06 13:27:48;;;;;;;1.48;1.20;;;;;;;;;;10337201;28;20455;-81
2021/08/06 13:32:48;;;;;;;2.50;1.33;;;;;;;;;;10337325;28;20113;-80
2021/08/06 13:37:49;;;;;;;5.43;1.50;;;;;;;;;;10338221;28;20030;-80
2021/08/06 13:42:50;;;;;;;2.73;1.30;;;;;;;;;;10336402;28;20496;-81
2021/08/06 13:47:50;;;;;;;1.92;1.42;;;;;;;;;;10337017;28;20440;-81
2021/08/06 13:52:51;;;;;;;1.52;1.02;;;;;;;;;;10336608;28;20030;-82
2021/08/06 13:57:51;;;;;;;3.80;1.20;;;;;;;;;;10337364;28;20113;-82
2021/08/06 14:02:52;;;;;;;4.28;1.40;;;;;;;;;;10336247;28;20030;-81
2021/08/06 14:07:54;;;;;;;3.63;1.50;;;;;;;;;;10318731;28;20082;-81
2021/08/06 14:12:54;;;;;;;5.30;1.40;;;;;;;;;;10335642;28;20073;-82
2021/08/06 14:17:55;;;;;;;3.90;1.70;;;;;;;;;;10336085;28;20081;-82
2021/08/06 14:22:56;;;;;;;4.07;1.80;;;;;;;;;;10336111;28;20105;-81
2021/08/06 14:27:56;;;;;;;7.43;1.98;;;;;;;;;;10332490;28;20061;-81
2021/08/06 14:32:58;;;;;;;2.37;1.30;;;;;;;;;;10334984;28;20109;-81
2021/08/06 14:37:58;;;;;;;7.05;1.95;;;;;;;;;;10334545;28;20444;-81
2021/08/06 14:42:58;;;;;;;6.03;1.47;;;;;;;;;;10334910;28;20031;-81
2021/08/06 14:47:59;;;;;;;10.27;2.20;;;;;;;;;;10334880;28;20093;-82
2021/08/06 14:53:00;;;;;;;3.67;1.60;;;;;;;;;;10335437;28;20034;-81
2021/08/06 14:58:01;;;;;;;3.70;1.58;;;;;;;;;;10334897;28;20051;-81
2021/08/06 15:03:02;;;;;;;2.83;1.70;;;;;;;;;;10334310;28;20046;-80
2021/08/06 15:08:03;;;;;;;6.37;2.10;;;;;;;;;;10334247;28;20042;-80
2021/08/06 15:13:04;;;;;;;4.47;1.85;;;;;;;;;;10334607;28;20412;-81
2021/08/06 15:18:06;;;;;;;4.60;1.60;;;;;;;;;;10333922;28;20101;-81
2021/08/06 15:23:06;;;;;;;6.18;2.13;;;;;;;;;;10334155;28;20383;-80
2021/08/06 15:28:06;;;;;;;4.45;1.60;;;;;;;;;;10333332;28;20118;-81
2021/08/06 15:33:07;;;;;;;3.77;1.60;;;;;;;;;;10333201;28;20034;-81
2021/08/06 15:38:07;;;;;;;5.07;2.05;;;;;;;;;;10333085;28;20796;-81
2021/08/06 15:43:08;;;;;;;3.97;2.27;;;;;;;;;;10334025;28;20033;-81
2021/08/06 15:48:09;;;;;;;4.47;2.37;;;;;;;;;;10331799;28;20053;-81
2021/08/06 15:53:10;;;;;;;6.97;2.40;;;;;;;;;;10332151;28;20117;-82
2021/08/06 15:58:10;;;;;;;4.03;1.85;;;;;;;;;;10332283;28;20032;-81
2021/08/06 16:03:10;;;;;;;4.73;2.10;;;;;;;;;;10332183;28;20531;-82
2021/08/06 16:08:11;;;;;;;6.57;2.10;;;;;;;;;;10339305;23;20480;-80
2021/08/06 16:13:11;;;;;;;3.35;2.03;;;;;;;;;;10332835;28;20055;-81
2021/08/06 16:18:12;;;;;;;3.63;2.13;;;;;;;;;;10338075;28;20164;-81
2021/08/06 16:23:12;;;;;;;2.90;2.17;;;;;;;;;;10340459;28;20512;-81
2021/08/06 16:28:14;;;;;;;2.97;1.93;;;;;;;;;;10339097;28;20460;-81
2021/08/06 16:33:14;;;;;;;3.95;2.00;;;;;;;;;;10340255;28;20448;-81
2021/08/06 16:38:15;;;;;;;3.40;1.92;;;;;;;;;;10339281;28;20039;-81
2021/08/06 16:43:16;;;;;;;4.67;1.97;;;;;;;;;;10339318;28;20038;-80
2021/08/06 16:48:17;;;;;;;3.72;2.03;;;;;;;;;;10338897;28;20520;-80
2021/08/06 16:53:17;;;;;;;8.07;1.73;;;;;;;;;;10339750;28;20510;-81
2021/08/06 16:58:18;;;;;;;3.27;1.97;;;;;;;;;;10338153;28;20456;-80
2021/08/06 17:03:19;;;;;;;3.83;1.70;;;;;;;;;;10337719;28;20102;-80
2021/08/06 17:08:19;;;;;;;4.80;1.73;;;;;;;;;;10338816;28;20555;-81
2021/08/06 17:13:20;;;;;;;2.73;1.57;;;;;;;;;;10338351;28;20092;-82
2021/08/06 17:18:20;;;;;;;2.53;1.67;;;;;;;;;;10337706;28;20764;-82
2021/08/06 17:23:20;;;;;;;3.83;2.07;;;;;;;;;;10344938;28;20455;-83
2021/08/06 17:28:21;;;;;;;2.83;1.60;;;;;;;;;;10337244;28;20491;-82
2021/08/06 17:33:22;;;;;;;2.20;1.50;;;;;;;;;;10340054;28;20238;-82
2021/08/06 17:38:22;;;;;;;2.78;1.60;;;;;;;;;;10340585;28;20453;-82
2021/08/06 17:43:23;;;;;;;3.57;1.70;;;;;;;;;;10338457;28;20021;-81
2021/08/06 17:48:24;;;;;;;4.88;1.80;;;;;;;;;;10341499;28;20437;-82
2021/08/06 17:53:24;;;;;;;1.92;1.67;;;;;;;;;;10340029;28;20122;-83
2021/08/06 17:58:25;;;;;;;2.17;1.50;;;;;;;;;;10325882;28;20034;-82
2021/08/06 18:03:25;;;;;;;2.33;1.70;;;;;;;;;;10347196;28;20030;-82
2021/08/06 18:08:26;;;;;;;3.13;1.50;;;;;;;;;;10342219;28;20483;-82
2021/08/06 18:13:26;;;;;;;2.40;1.60;;;;;;;;;;10339500;28;20468;-82
2021/08/06 18:18:27;;;;;;;5.50;1.57;;;;;;;;;;10336248;28;20034;-82
2021/08/06 18:23:27;;;;;;;3.25;1.55;;;;;;;;;;10335388;28;20160;-82
2021/08/06 18:28:28;;;;;;;2.57;1.50;;;;;;;;;;10335414;28;20038;-83
2021/08/06 18:33:29;;;;;;;3.38;1.77;;;;;;;;;;10335138;28;20033;-82
2021/08/06 18:38:29;;;;;;;3.63;1.70;;;;;;;;;;10334273;28;20026;-82
2021/08/06 18:43:29;;;;;;;4.57;1.90;;;;;;;;;;10335775;28;20981;-82
2021/08/06 18:48:30;;;;;;;2.03;1.50;;;;;;;;;;10335258;28;20041;-82
2021/08/06 18:53:32;;;;;;;5.45;1.88;;;;;;;;;;10335272;28;20803;-82
2021/08/06 18:58:32;;;;;;;6.28;1.73;;;;;;;;;;10333961;28;20032;-82
2021/08/06 19:03:35;;;;;;;2.43;1.60;;;;;;;;;;10334329;28;20030;-82
2021/08/06 19:08:36;;;;;;;2.92;1.50;;;;;;;;;;10334069;28;20479;-82
2021/08/06 19:13:38;;;;;;;2.38;1.63;;;;;;;;;;10334938;28;20121;-82
2021/08/06 19:18:38;;;;;;;2.05;1.60;;;;;;;;;;10333703;28;20072;-82
2021/08/06 19:23:39;;;;;;;2.73;1.50;;;;;;;;;;10334435;28;20121;-82
2021/08/06 19:28:39;;;;;;;3.57;1.67;;;;;;;;;;10332701;28;20547;-82
2021/08/06 19:33:40;;;;;;;2.35;1.70;;;;;;;;;;10333705;28;20038;-82
2021/08/06 19:38:41;;;;;;;3.88;1.85;;;;;;;;;;10333524;28;20022;-82
2021/08/06 19:43:42;;;;;;;5.70;1.73;;;;;;;;;;10333381;28;20027;-82
2021/08/06 19:48:43;;;;;;;3.40;1.60;;;;;;;;;;10339959;28;20030;-82
2021/08/06 19:53:46;;;;;;;1.98;1.55;;;;;;;;;;10346500;28;20019;-82
2021/08/06 19:58:46;;;;;;;3.88;2.05;;;;;;;;;;10345425;28;20040;-82
2021/08/06 20:03:47;;;;;;;1.63;1.50;;;;;;;;;;10346207;28;20026;-84
2021/08/06 20:08:47;;;;;;;1.70;1.60;;;;;;;;;;10346256;28;20042;-84
2021/08/06 20:13:47;;;;;;;4.53;2.00;;;;;;;;;;10345077;28;20046;-84
2021/08/06 20:18:48;;;;;;;2.42;2.10;;;;;;;;;;10346280;28;20491;-84
2021/08/06 20:23:51;;;;;;;1.80;1.70;;;;;;;;;;10346357;28;20097;-84
2021/08/06 20:28:52;;;;;;;2.40;1.85;;;;;;;;;;10356853;28;20508;-84
2021/08/06 20:33:52;;;;;;;2.47;1.90;;;;;;;;;;10344256;28;20424;-84
2021/08/06 20:38:53;;;;;;;5.82;2.20;;;;;;;;;;10341982;28;20403;-85
2021/08/06 20:43:53;;;;;;;2.87;1.73;;;;;;;;;;10345340;28;20026;-84
2021/08/06 20:48:53;;;;;;;3.17;1.70;;;;;;;;;;10343841;28;20490;-84
2021/08/06 20:53:54;;;;;;;3.60;1.63;;;;;;;;;;10342863;28;20034;-84
2021/08/06 20:58:54;;;;;;;3.23;1.83;;;;;;;;;;10331131;28;20802;-84
2021/08/06 21:03:55;;;;;;;4.30;2.00;;;;;;;;;;10326485;28;20026;-84
2021/08/06 21:08:55;;;;;;;3.23;1.60;;;;;;;;;;10339556;28;20476;-84
2021/08/06 21:13:55;;;;;;;6.13;2.10;;;;;;;;;;10337993;28;20448;-84
2021/08/06 21:18:56;;;;;;;4.40;1.93;;;;;;;;;;10338799;28;21004;-84
2021/08/06 21:23:56;;;;;;;6.03;2.30;;;;;;;;;;10338611;28;20026;-84
2021/08/06 21:28:57;;;;;;;7.00;2.13;;;;;;;;;;10338171;28;20468;-82
2021/08/06 21:33:57;;;;;;;3.70;2.20;;;;;;;;;;10338579;28;20476;-81
2021/08/06 21:38:58;;;;;;;3.88;1.95;;;;;;;;;;10337851;28;20530;-82
2021/08/06 21:43:58;;;;;;;3.97;1.83;;;;;;;;;;10320409;28;20503;-82
2021/08/06 21:48:59;;;;;;;3.78;1.70;;;;;;;;;;10304818;28;20408;-83
2021/08/06 21:53:59;;;;;;;6.60;2.00;;;;;;;;;;10309748;28;20026;-83
2021/08/06 21:58:59;;;;;;;5.22;2.00;;;;;;;;;;10336413;28;20117;-83
2021/08/06 22:04:00;;;;;;;5.50;2.33;;;;;;;;;;10336357;28;20027;-82
2021/08/06 22:09:00;;;;;;;7.77;2.30;;;;;;;;;;10336959;28;20476;-82
2021/08/06 22:14:01;;;;;;;9.20;2.23;;;;;;;;;;10335625;28;20972;-82
2021/08/06 22:19:01;;;;;;;6.07;1.90;;;;;;;;;;10334842;28;20030;-82
2021/08/06 22:24:02;;;;;;;4.07;1.98;;;;;;;;;;10334946;28;20031;-82
2021/08/06 22:29:03;;;;;;;4.75;1.92;;;;;;;;;;10335845;28;20024;-82
2021/08/06 22:34:03;;;;;;;6.93;2.00;;;;;;;;;;10336134;28;20076;-82
2021/08/06 22:39:04;;;;;;;4.33;2.33;;;;;;;;;;10333511;28;20555;-82
2021/08/06 22:44:04;;;;;;;3.85;2.20;;;;;;;;;;10332944;28;20444;-82
2021/08/06 22:49:05;;;;;;;5.53;1.95;;;;;;;;;;10334237;28;20169;-82
2021/08/06 22:54:05;;;;;;;4.95;2.55;;;;;;;;;;10334922;28;20033;-82
2021/08/06 22:59:05;;;;;;;6.00;1.90;;;;;;;;;;10334415;28;20472;-82
2021/08/06 23:04:06;;;;;;;4.80;2.10;;;;;;;;;;10335456;28;20053;-82
2021/08/06 23:09:06;;;;;;;2.73;1.97;;;;;;;;;;10334279;28;20457;-82
2021/08/06 23:14:07;;;;;;;5.67;1.93;;;;;;;;;;10333779;28;20113;-82
2021/08/06 23:19:07;;;;;;;6.07;2.33;;;;;;;;;;10333629;28;20035;-82
2021/08/06 23:24:07;;;;;;;5.97;1.97;;;;;;;;;;10333946;28;20027;-82
2021/08/06 23:29:08;;;;;;;3.50;1.95;;;;;;;;;;10332961;28;20117;-82
2021/08/06 23:34:08;;;;;;;5.13;1.80;;;;;;;;;;10334171;28;20488;-82
2021/08/06 23:39:08;;;;;;;3.55;2.10;;;;;;;;;;10333582;28;20153;-82
2021/08/06 23:44:09;;;;;;;2.70;1.77;;;;;;;;;;10333952;28;20041;-82
2021/08/06 23:49:09;;;;;;;3.85;2.13;;;;;;;;;;10333603;28;20046;-82
2021/08/06 23:54:09;;;;;;;2.53;2.00;;;;;;;;;;10333272;28;20035;-82
2021/08/06 23:59:09;;;;;;;6.50;2.10;;;;;;;;;;10333133;28;20073;-82
